Time;durP1;ratioP1;P1;durP2;ratioP2;P2;SDS_P1;SDS_P2;PMS_P1;PMS_P2;Temp;Humidity;BMP_temperature;BMP_pressure;BME280_temperature;BME280_humidity;BME280_pressure;Samples;Min_cycle;Max_cycle;Signal;HPM_P1;HPM_P2
2021/07/08 00:05:47;;;;;;;5.38;2.70;;;23.60;56.30;;;;;;15563004;28;21006;-69
2021/07/08 00:13:23;;;;;;;5.57;3.13;;;23.60;56.50;;;;;;15562785;28;20399;-69
2021/07/08 00:20:54;;;;;;;5.88;3.08;;;23.60;56.50;;;;;;15562392;28;20038;-69
2021/07/08 00:28:25;;;;;;;6.75;3.03;;;23.60;56.60;;;;;;15562418;28;20084;-69
2021/07/08 00:35:56;;;;;;;8.10;2.63;;;23.60;56.70;;;;;;15561793;28;20034;-69
2021/07/08 00:43:30;;;;;;;6.18;2.70;;;23.60;56.80;;;;;;15562670;28;20033;-69
2021/07/08 00:51:01;;;;;;;5.13;2.83;;;23.50;56.80;;;;;;15561369;28;20018;-69
2021/07/08 00:58:32;;;;;;;5.20;2.63;;;23.60;56.90;;;;;;15559852;28;20034;-69
2021/07/08 01:06:03;;;;;;;7.22;2.78;;;23.60;57.00;;;;;;15559728;28;20508;-69
2021/07/08 01:13:33;;;;;;;4.28;2.58;;;23.60;57.00;;;;;;15559517;28;20037;-69
2021/07/08 01:21:24;;;;;;;4.70;2.93;;;23.60;57.10;;;;;;15560360;28;20046;-69
2021/07/08 01:28:54;;;;;;;6.38;2.50;;;23.60;57.00;;;;;;15560174;28;20029;-68
2021/07/08 03:03:18;;;;;;;3.05;2.13;;;23.60;57.70;;;;;;17532597;23;20070;-74
2021/07/08 03:10:49;;;;;;;3.97;2.20;;;23.60;57.80;;;;;;15446753;28;20030;-74
2021/07/08 03:18:19;;;;;;;3.95;2.13;;;23.60;57.80;;;;;;15469882;23;20486;-68
2021/07/08 03:25:50;;;;;;;5.95;2.53;;;23.60;57.80;;;;;;15445023;28;20034;-68
2021/07/08 03:33:20;;;;;;;4.63;2.30;;;23.50;57.80;;;;;;15442567;28;20081;-68
2021/07/08 03:40:51;;;;;;;3.13;1.80;;;23.50;57.90;;;;;;15443296;28;20073;-69
2021/07/08 03:48:21;;;;;;;4.15;2.13;;;23.50;57.80;;;;;;15442888;28;20030;-68
2021/07/08 03:55:52;;;;;;;5.40;2.07;;;23.50;57.90;;;;;;15441742;28;20042;-69
2021/07/08 04:03:22;;;;;;;4.03;2.25;;;23.50;57.90;;;;;;15442164;28;20046;-69
2021/07/08 04:10:53;;;;;;;3.43;1.93;;;23.50;57.90;;;;;;15440513;28;20034;-68
2021/07/08 04:18:24;;;;;;;5.43;2.43;;;23.50;58.00;;;;;;15442032;28;20515;-68
2021/07/08 04:25:54;;;;;;;2.90;1.80;;;23.50;58.00;;;;;;15439787;28;20038;-69
2021/07/08 04:33:25;;;;;;;7.87;2.60;;;23.60;58.10;;;;;;15439663;28;20032;-68
2021/07/08 04:40:56;;;;;;;4.82;2.10;;;23.50;58.10;;;;;;15440124;28;20996;-69
2021/07/08 04:48:26;;;;;;;8.73;1.95;;;23.60;58.20;;;;;;15440290;28;20074;-69
2021/07/08 04:55:57;;;;;;;6.30;2.28;;;23.60;58.20;;;;;;15440092;28;20035;-69
2021/07/08 05:03:27;;;;;;;6.43;2.00;;;23.60;58.30;;;;;;15439968;28;20038;-68
2021/07/08 05:10:58;;;;;;;4.80;1.60;;;23.60;58.30;;;;;;15448817;28;20059;-68
2021/07/08 05:18:29;;;;;;;4.45;2.00;;;23.60;58.40;;;;;;15451591;28;20046;-69
2021/07/08 05:25:59;;;;;;;7.90;2.60;;;23.60;58.40;;;;;;15449806;28;20038;-69
2021/07/08 05:33:30;;;;;;;3.80;1.90;;;23.60;58.40;;;;;;15450846;28;20030;-68
2021/07/08 05:41:00;;;;;;;5.22;1.70;;;23.60;58.50;;;;;;15450142;28;20453;-68
2021/07/08 05:48:31;;;;;;;9.13;1.77;;;23.60;58.60;;;;;;15450025;28;20382;-68
2021/07/08 05:56:01;;;;;;;4.53;1.97;;;23.60;58.90;;;;;;15449389;28;20043;-68
2021/07/08 06:03:32;;;;;;;4.87;2.30;;;23.60;59.10;;;;;;15449684;28;20086;-68
2021/07/08 06:11:02;;;;;;;6.93;2.30;;;23.60;58.70;;;;;;15449023;28;20493;-68
2021/07/08 06:18:33;;;;;;;6.10;1.80;;;23.60;59.10;;;;;;15447499;28;20047;-69
2021/07/08 06:26:03;;;;;;;5.65;2.15;;;23.70;59.50;;;;;;15447577;28;20093;-69
2021/07/08 06:33:34;;;;;;;6.23;2.10;;;23.70;59.70;;;;;;15448322;28;20037;-71
2021/07/08 06:41:04;;;;;;;5.20;2.53;;;23.70;59.90;;;;;;15446857;28;20035;-70
2021/07/08 06:48:35;;;;;;;5.88;2.08;;;23.70;59.90;;;;;;15446567;28;20035;-69
2021/07/08 06:56:05;;;;;;;6.10;2.20;;;23.70;59.80;;;;;;15445949;28;20027;-69
2021/07/08 07:03:36;;;;;;;4.37;2.03;;;23.80;60.00;;;;;;15444380;28;20027;-68
2021/07/08 07:11:07;;;;;;;4.18;2.58;;;23.80;59.90;;;;;;15445225;28;20780;-70
2021/07/08 07:18:39;;;;;;;4.40;2.35;;;23.70;59.10;;;;;;15444599;28;20174;-69
2021/07/08 07:26:11;;;;;;;8.23;2.42;;;23.70;59.30;;;;;;15444165;28;20030;-70
2021/07/08 07:33:42;;;;;;;4.75;2.30;;;23.60;59.30;;;;;;15443083;28;20031;-69
2021/07/08 07:41:13;;;;;;;7.32;3.08;;;23.50;59.60;;;;;;15443299;28;20023;-69
2021/07/08 07:48:44;;;;;;;7.25;2.50;;;23.50;59.80;;;;;;15441687;28;20117;-69
2021/07/08 07:56:16;;;;;;;6.97;2.55;;;23.50;60.00;;;;;;15442485;28;20118;-70
2021/07/08 08:03:49;;;;;;;10.73;3.22;;;23.50;60.20;;;;;;15442206;28;20106;-70
2021/07/08 08:11:21;;;;;;;7.40;2.95;;;23.50;60.40;;;;;;15442053;28;20026;-70
2021/07/08 08:18:51;;;;;;;10.25;2.95;;;23.50;61.00;;;;;;15441268;28;20042;-69
2021/07/08 08:26:22;;;;;;;5.90;2.78;;;23.60;60.80;;;;;;15441059;28;20544;-71
2021/07/08 08:33:52;;;;;;;6.30;2.80;;;23.60;61.20;;;;;;15439411;28;20027;-69
2021/07/08 08:41:23;;;;;;;4.53;2.60;;;23.60;60.90;;;;;;15440468;28;20058;-69
2021/07/08 08:48:54;;;;;;;20.20;3.20;;;23.60;60.90;;;;;;15440260;28;20031;-69
2021/07/08 08:56:25;;;;;;;7.20;2.65;;;23.70;61.60;;;;;;15440217;28;20470;-69
2021/07/08 09:03:55;;;;;;;6.70;2.70;;;23.70;61.70;;;;;;15439867;28;20023;-69
2021/07/08 09:11:26;;;;;;;6.70;2.43;;;23.70;61.80;;;;;;15439784;28;20069;-69
2021/07/08 09:19:08;;;;;;;6.82;2.10;;;23.80;61.60;;;;;;15440098;28;20042;-70
2021/07/08 09:26:53;;;;;;;5.90;2.40;;;23.80;61.50;;;;;;15439798;28;20027;-70
2021/07/08 09:34:30;;;;;;;6.72;2.30;;;23.80;62.00;;;;;;15437709;28;20034;-69
2021/07/08 09:42:02;;;;;;;3.42;2.30;;;23.80;61.90;;;;;;15439489;28;20023;-69
2021/07/08 09:49:42;;;;;;;5.35;2.10;;;23.80;61.20;;;;;;15437274;28;20030;-69
2021/07/08 09:57:35;;;;;;;3.60;2.28;;;23.90;61.40;;;;;;15448526;28;20082;-69
2021/07/08 10:05:06;;;;;;;2.72;1.95;;;23.90;61.40;;;;;;15449152;28;20065;-69
2021/07/08 10:12:38;;;;;;;4.90;2.05;;;23.80;59.50;;;;;;15449331;28;20485;-69
2021/07/08 10:20:11;;;;;;;3.15;1.60;;;23.80;58.40;;;;;;15448156;28;20039;-69
2021/07/08 10:28:20;;;;;;;4.93;1.92;;;23.80;59.00;;;;;;15739592;28;20615;-65
2021/07/08 10:35:54;;;;;;;7.95;2.10;;;23.70;59.80;;;;;;15738238;28;20036;-63
2021/07/08 10:43:39;;;;;;;4.22;1.95;;;23.70;60.30;;;;;;15738163;28;20036;-64
2021/07/08 10:51:17;;;;;;;3.90;1.80;;;23.80;59.70;;;;;;15737912;28;20032;-64
2021/07/08 10:58:56;;;;;;;3.53;1.63;;;23.70;59.90;;;;;;15736828;28;20036;-64
2021/07/08 11:06:35;;;;;;;2.97;1.55;;;23.70;59.00;;;;;;15736278;28;20078;-64
2021/07/08 11:14:11;;;;;;;5.28;2.33;;;23.60;58.90;;;;;;15734529;28;20460;-64
2021/07/08 11:22:04;;;;;;;5.90;2.00;;;23.60;58.20;;;;;;15734972;28;20021;-64
2021/07/08 11:29:37;;;;;;;6.03;2.33;;;23.60;58.90;;;;;;15735181;28;20066;-64
2021/07/08 11:37:14;;;;;;;6.25;1.95;;;23.60;59.40;;;;;;15707810;28;20029;-64
2021/07/08 11:44:46;;;;;;;2.63;2.05;;;23.70;58.00;;;;;;15693254;28;20029;-64
2021/07/08 11:52:22;;;;;;;4.93;2.17;;;23.70;58.60;;;;;;15693621;28;20072;-64
2021/07/08 11:59:53;;;;;;;3.42;2.10;;;23.70;58.00;;;;;;15691912;28;20479;-64
2021/07/08 12:07:24;;;;;;;3.63;1.90;;;23.70;56.90;;;;;;15692594;28;20434;-64
2021/07/08 12:14:58;;;;;;;3.47;2.17;;;23.70;55.60;;;;;;15691372;28;20106;-64
2021/07/08 12:22:28;;;;;;;4.20;2.20;;;23.70;56.10;;;;;;15690978;28;20025;-64
2021/07/08 12:29:59;;;;;;;3.22;2.30;;;23.70;56.50;;;;;;15690241;28;20028;-64
2021/07/08 12:37:33;;;;;;;5.77;2.83;;;23.70;57.30;;;;;;15690208;28;20028;-65
2021/07/08 12:45:15;;;;;;;6.50;2.50;;;23.70;58.30;;;;;;15689528;28;20999;-64
2021/07/08 12:52:46;;;;;;;4.70;2.10;;;23.70;59.10;;;;;;15688921;28;20472;-65
2021/07/08 13:00:17;;;;;;;4.50;2.28;;;23.70;59.40;;;;;;15687191;28;20029;-65
2021/07/08 13:07:48;;;;;;;3.35;2.03;;;23.70;59.60;;;;;;15686711;28;20032;-65
2021/07/08 13:15:24;;;;;;;5.78;2.50;;;23.70;59.70;;;;;;15687640;28;20399;-65
2021/07/08 13:22:55;;;;;;;5.47;2.30;;;23.70;60.00;;;;;;15687692;28;20518;-65
2021/07/08 13:30:35;;;;;;;4.68;2.15;;;23.70;59.80;;;;;;15685333;28;20028;-65
2021/07/08 13:38:13;;;;;;;5.63;2.10;;;23.70;60.20;;;;;;15686521;28;20025;-65
2021/07/08 13:45:44;;;;;;;4.88;2.10;;;23.70;60.30;;;;;;15684620;28;20439;-65
2021/07/08 13:53:14;;;;;;;5.10;2.30;;;23.80;60.40;;;;;;15685599;28;20021;-66
2021/07/08 14:00:45;;;;;;;9.93;2.07;;;23.80;60.40;;;;;;15683653;28;20447;-65
2021/07/08 14:08:19;;;;;;;9.77;1.90;;;23.70;60.10;;;;;;15683220;28;20506;-66
2021/07/08 14:15:49;;;;;;;4.25;1.65;;;23.70;59.80;;;;;;15684581;28;20391;-66
2021/07/08 14:23:21;;;;;;;5.43;1.70;;;23.70;59.60;;;;;;15684524;28;20044;-66
2021/07/08 14:30:52;;;;;;;3.72;2.15;;;23.70;59.70;;;;;;15682972;28;20025;-65
2021/07/08 14:38:22;;;;;;;9.10;2.70;;;23.70;59.80;;;;;;15684321;28;20025;-65
2021/07/08 14:45:53;;;;;;;8.55;3.53;;;23.70;60.60;;;;;;15683856;28;20437;-65
2021/07/08 14:53:23;;;;;;;6.95;3.17;;;23.70;62.00;;;;;;15682740;28;20140;-66
2021/07/08 15:00:54;;;;;;;7.00;2.90;;;23.70;63.60;;;;;;15683914;28;20108;-66
2021/07/08 15:08:25;;;;;;;10.47;3.37;;;23.70;63.80;;;;;;15684294;28;20031;-65
2021/07/08 15:15:55;;;;;;;5.25;2.58;;;23.70;64.10;;;;;;15695335;28;20497;-66
2021/07/08 15:23:26;;;;;;;5.10;2.43;;;23.70;63.80;;;;;;15694494;28;20504;-66
2021/07/08 15:30:56;;;;;;;3.28;2.00;;;23.70;64.30;;;;;;15692764;28;20032;-66
2021/07/08 15:38:27;;;;;;;2.97;1.83;;;23.70;64.60;;;;;;15692085;28;20025;-66
2021/07/08 15:45:57;;;;;;;5.70;2.20;;;23.70;64.50;;;;;;15692928;28;20037;-66
2021/07/08 15:53:28;;;;;;;4.07;2.03;;;23.70;64.10;;;;;;15692515;28;20028;-66
2021/07/08 16:01:00;;;;;;;4.93;2.07;;;23.70;63.10;;;;;;15692386;28;20847;-66
2021/07/08 16:08:30;;;;;;;3.83;1.75;;;23.70;62.50;;;;;;15691634;28;20025;-66
2021/07/08 16:16:01;;;;;;;5.18;2.00;;;23.70;62.50;;;;;;15691311;28;20032;-67
2021/07/08 16:23:32;;;;;;;4.65;2.00;;;23.70;62.70;;;;;;15691920;28;20099;-66
2021/07/08 16:31:02;;;;;;;11.55;2.50;;;23.70;62.80;;;;;;15690391;28;20014;-66
2021/07/08 16:38:33;;;;;;;7.55;2.42;;;23.70;63.10;;;;;;15689969;28;20083;-66
2021/07/08 16:46:03;;;;;;;5.77;2.60;;;23.70;62.60;;;;;;15688292;28;20457;-66
2021/07/08 16:53:34;;;;;;;7.80;3.00;;;23.70;62.40;;;;;;15689299;28;20399;-66
2021/07/08 17:01:05;;;;;;;6.57;2.63;;;23.70;62.40;;;;;;15688767;28;20447;-66
2021/07/08 17:08:37;;;;;;;5.07;2.67;;;23.60;62.40;;;;;;15688216;28;20162;-66
2021/07/08 17:16:07;;;;;;;4.82;2.30;;;23.60;62.40;;;;;;15687746;28;20471;-66
2021/07/08 17:23:38;;;;;;;4.83;2.20;;;23.70;62.30;;;;;;15687119;28;20061;-66
2021/07/08 17:31:08;;;;;;;4.13;2.30;;;23.60;62.30;;;;;;15685124;28;20455;-66
2021/07/08 17:38:39;;;;;;;3.40;2.13;;;23.70;62.40;;;;;;15687126;28;20021;-66
2021/07/08 17:46:10;;;;;;;6.05;2.22;;;23.60;62.40;;;;;;15686244;28;20463;-66
2021/07/08 17:53:41;;;;;;;4.75;2.17;;;23.60;62.10;;;;;;15686708;28;20025;-66
2021/07/08 18:01:12;;;;;;;3.90;2.75;;;23.60;62.10;;;;;;15685370;28;20024;-66
2021/07/08 18:08:43;;;;;;;4.93;2.38;;;23.60;61.90;;;;;;15683792;28;20440;-66
2021/07/08 18:16:13;;;;;;;5.78;2.55;;;23.60;61.90;;;;;;15686208;28;20031;-66
2021/07/08 18:23:44;;;;;;;3.42;2.15;;;23.60;61.80;;;;;;15684653;28;20044;-66
2021/07/08 18:31:15;;;;;;;4.18;1.92;;;23.50;61.80;;;;;;15684547;28;20017;-66
2021/07/08 18:38:45;;;;;;;3.93;2.10;;;23.50;61.70;;;;;;15684255;28;20033;-66
2021/07/08 18:46:16;;;;;;;6.20;2.25;;;23.50;61.50;;;;;;15688349;28;20052;-67
2021/07/08 18:53:46;;;;;;;6.70;2.43;;;23.50;61.90;;;;;;15696376;28;20033;-66
2021/07/08 19:01:18;;;;;;;6.68;2.72;;;23.50;62.00;;;;;;15695519;28;20037;-67
2021/07/08 19:08:48;;;;;;;5.43;2.22;;;23.50;61.70;;;;;;15694056;28;20052;-66
2021/07/08 19:16:20;;;;;;;3.40;2.07;;;23.50;61.60;;;;;;15695027;28;20025;-67
2021/07/08 19:23:58;;;;;;;5.43;2.20;;;23.50;61.50;;;;;;15694072;28;20566;-66
2021/07/08 19:31:33;;;;;;;4.80;2.45;;;23.50;61.40;;;;;;15694073;28;20029;-67
2021/07/08 19:39:05;;;;;;;6.73;2.53;;;23.50;61.20;;;;;;15693839;28;20033;-67
2021/07/08 19:46:35;;;;;;;4.57;2.03;;;23.40;61.30;;;;;;15691723;28;20028;-66
2021/07/08 19:54:06;;;;;;;10.77;2.37;;;23.50;61.10;;;;;;15692385;28;20033;-66
2021/07/08 20:01:37;;;;;;;11.53;2.40;;;23.40;61.20;;;;;;15692422;28;20040;-67
2021/07/08 20:09:08;;;;;;;5.63;2.63;;;23.40;61.40;;;;;;15691782;28;20013;-66
2021/07/08 20:16:39;;;;;;;12.57;2.73;;;23.40;61.20;;;;;;15691199;28;20446;-67
2021/07/08 20:24:09;;;;;;;6.97;2.22;;;23.40;61.20;;;;;;15690576;28;20037;-67
2021/07/08 20:31:40;;;;;;;10.13;2.80;;;23.40;61.30;;;;;;15690463;28;20075;-67
2021/07/08 20:39:12;;;;;;;10.77;2.40;;;23.40;61.40;;;;;;15690775;28;20020;-66
2021/07/08 20:46:43;;;;;;;6.82;2.17;;;23.40;61.40;;;;;;15689494;28;20463;-66
2021/07/08 20:54:14;;;;;;;8.35;2.40;;;23.40;61.50;;;;;;15689199;28;20017;-67
2021/07/08 21:01:44;;;;;;;6.33;2.50;;;23.40;61.50;;;;;;15688849;28;20028;-66
2021/07/08 21:09:15;;;;;;;5.43;2.23;;;23.40;61.50;;;;;;15687879;28;21005;-67
2021/07/08 21:16:46;;;;;;;4.47;2.20;;;23.40;61.20;;;;;;15689893;28;20442;-66
2021/07/08 21:24:16;;;;;;;6.47;2.70;;;23.40;61.10;;;;;;15688311;28;20055;-65
2021/07/08 21:31:47;;;;;;;6.27;2.40;;;23.40;61.10;;;;;;15687029;28;20036;-65
2021/07/08 21:39:18;;;;;;;6.97;2.83;;;23.40;60.90;;;;;;15685237;28;20056;-65
2021/07/08 21:46:48;;;;;;;7.38;2.60;;;23.40;60.80;;;;;;15686095;28;20455;-65
2021/07/08 21:54:19;;;;;;;4.97;2.83;;;23.30;60.70;;;;;;15685805;28;20505;-65
2021/07/08 22:01:49;;;;;;;5.38;2.38;;;23.30;60.50;;;;;;15685451;28;20076;-65
2021/07/08 22:09:20;;;;;;;4.30;2.27;;;23.30;60.40;;;;;;15683845;28;20021;-65
2021/07/08 22:16:50;;;;;;;5.10;2.53;;;23.30;60.50;;;;;;15684742;28;20126;-65
2021/07/08 22:24:21;;;;;;;5.40;2.50;;;23.30;60.50;;;;;;15684753;28;20052;-65
2021/07/08 22:31:51;;;;;;;6.10;3.15;;;23.30;60.50;;;;;;15684396;28;20029;-65
2021/07/08 22:39:22;;;;;;;4.88;2.45;;;23.30;60.30;;;;;;15684230;28;20507;-65
2021/07/08 22:46:53;;;;;;;5.40;2.67;;;23.30;60.10;;;;;;15683990;28;20434;-65
2021/07/08 22:54:23;;;;;;;3.93;2.70;;;23.20;60.30;;;;;;15682569;28;20451;-65
2021/07/08 23:01:53;;;;;;;3.63;2.20;;;23.20;60.30;;;;;;15683614;28;20997;-65
2021/07/08 23:09:24;;;;;;;3.90;2.30;;;23.20;60.10;;;;;;15683293;28;20435;-65
2021/07/08 23:16:55;;;;;;;6.22;2.03;;;23.20;60.10;;;;;;15683225;28;20037;-65
2021/07/08 23:24:26;;;;;;;6.80;2.42;;;23.20;60.30;;;;;;15682936;28;20029;-65
2021/07/08 23:31:57;;;;;;;3.92;2.10;;;23.20;60.40;;;;;;15687758;28;20491;-65
